CheckWX is a tool to help pilots better visualize weather data.  It is not intended as a substitute for an official pre-flight weather briefing.

10:37:46 UTC

GVSV METAR
São Pedro Airport
São Pedro, Cape Verde
Current

38 mins ago

GVSV 141000Z 06025KT 9999 FEW018 28/22 Q1013 NOSIG
Observed
Oct-14 @ 10:00 UTC
Wind
  • 060° at 25 KTS
Visibility
10,000+ meters
Flight Rules
VFR
Cloud Levels
  • Few at 1,800' AGL
Temperature
28°C / 82°F
Dewpoint
22°C / 72°F
Heat Index
30°C / 86°F
Humidity
70%
Altimeter
29.91" Hg
Pressure
1012.92 hPa
Previous

2 hours ago

GVSV 140900Z 06025KT 9999 FEW018 26/21 Q1012 NOSIG
Observed
Oct-14 @ 09:00 UTC
Wind
  • 060° at 25 KTS
Visibility
10,000+ meters
Flight Rules
VFR
Cloud Levels
  • Few at 1,800' AGL
Temperature
26°C / 79°F
Dewpoint
21°C / 70°F
Humidity
74%
Altimeter
29.88" Hg
Pressure
1011.92 hPa
Previous

3 hours ago

GVSV 140800Z 05023KT 9999 FEW018 25/21 Q1012 NOSIG
Observed
Oct-14 @ 08:00 UTC
Wind
  • 050° at 23 KTS
Visibility
10,000+ meters
Flight Rules
VFR
Cloud Levels
  • Few at 1,800' AGL
Temperature
25°C / 77°F
Dewpoint
21°C / 70°F
Humidity
79%
Altimeter
29.88" Hg
Pressure
1011.92 hPa